Time;durP1;ratioP1;P1;durP2;ratioP2;P2;SDS_P1;SDS_P2;PMS_P1;PMS_P2;Temp;Humidity;BMP_temperature;BMP_pressure;BME280_temperature;BME280_humidity;BME280_pressure;Samples;Min_cycle;Max_cycle;Signal;HPM_P1;HPM_P2
2021/07/15 00:00:36;;;;;;;0.40;0.40;;;18.50;99.90;;;;;;5053367;28;20516;-77
2021/07/15 00:03:07;;;;;;;0.40;0.40;;;18.50;99.90;;;;;;5053397;28;20517;-79
2021/07/15 00:05:38;;;;;;;0.40;0.40;;;18.50;1.00;;;;;;5050939;28;20908;-78
2021/07/15 00:08:08;;;;;;;0.40;0.40;;;18.40;1.00;;;;;;5053729;28;20474;-78
2021/07/15 00:10:39;;;;;;;0.40;0.40;;;18.40;12.10;;;;;;5058854;28;20451;-78
2021/07/15 00:13:09;;;;;;;0.40;0.40;;;18.40;1.00;;;;;;5053355;28;20964;-82
2021/07/15 00:15:40;;;;;;;1.00;0.40;;;18.40;1.00;;;;;;5049161;28;20446;-79
2021/07/15 00:18:09;;;;;;;0.30;0.30;;;18.30;1.00;;;;;;5051512;28;20470;-79
2021/07/15 00:20:42;;;;;;;0.90;0.40;;;18.30;99.90;;;;;;5047764;28;20459;-78
2021/07/15 00:23:10;;;;;;;0.40;0.40;;;18.40;1.00;;;;;;5044505;28;20463;-80
2021/07/15 00:25:39;;;;;;;0.70;0.53;;;18.50;1.00;;;;;;5050531;28;20513;-78
2021/07/15 00:28:08;;;;;;;1.07;0.40;;;18.50;1.00;;;;;;5060855;28;20469;-78
2021/07/15 00:30:36;;;;;;;0.97;0.40;;;18.50;1.00;;;;;;5054650;28;20449;-78
2021/07/15 00:33:05;;;;;;;0.40;0.40;;;18.50;1.00;;;;;;5059095;28;20446;-78
2021/07/15 00:35:33;;;;;;;11.13;0.70;;;18.50;1.00;;;;;;5053830;28;20442;-78
2021/07/15 00:38:03;;;;;;;0.43;0.40;;;18.50;1.00;;;;;;5046993;28;20483;-80
2021/07/15 00:40:32;;;;;;;0.40;0.40;;;18.50;1.00;;;;;;5051448;28;20474;-79
2021/07/15 00:43:00;;;;;;;1.80;0.57;;;18.50;12.60;;;;;;5053189;28;20458;-78
2021/07/15 00:45:30;;;;;;;0.40;0.40;;;18.40;99.90;;;;;;5052201;28;20457;-78
2021/07/15 00:47:59;;;;;;;0.80;0.40;;;18.20;99.90;;;;;;5052563;28;20474;-79
2021/07/15 00:50:27;;;;;;;0.40;0.40;;;18.20;5.20;;;;;;5058371;28;20504;-78
2021/07/15 00:52:56;;;;;;;1.80;0.40;;;18.30;1.00;;;;;;5048802;28;20532;-79
2021/07/15 00:55:28;;;;;;;0.40;0.40;;;18.20;99.90;;;;;;5055119;28;20451;-77
2021/07/15 00:57:57;;;;;;;0.60;0.40;;;18.10;1.00;;;;;;5051260;28;20560;-78
2021/07/15 01:00:26;;;;;;;0.37;0.37;;;17.90;99.90;;;;;;5053408;28;20842;-79
2021/07/15 01:02:56;;;;;;;0.83;0.40;;;17.90;99.90;;;;;;5055829;28;20468;-78
2021/07/15 01:05:26;;;;;;;0.50;0.50;;;17.90;1.00;;;;;;5044490;28;20467;-79
2021/07/15 01:07:54;;;;;;;0.37;0.37;;;18.00;1.00;;;;;;5050181;28;20485;-79
2021/07/15 01:10:26;;;;;;;0.63;0.40;;;17.90;1.00;;;;;;5053451;28;20460;-78
2021/07/15 01:13:11;;;;;;;0.40;0.40;;;17.70;1.00;;;;;;5049482;28;20451;-79
2021/07/15 01:15:49;;;;;;;0.40;0.40;;;17.60;1.00;;;;;;5040940;28;20455;-80
2021/07/15 01:18:27;;;;;;;0.77;0.40;;;17.70;99.90;;;;;;5060960;28;20523;-83
2021/07/15 01:21:32;;;;;;;0.80;0.40;;;17.90;1.00;;;;;;5046789;28;20454;-79
2021/07/15 01:24:45;;;;;;;0.53;0.40;;;17.90;62.60;;;;;;5052690;28;20544;-81
2021/07/15 01:27:42;;;;;;;1.33;0.40;;;17.90;1.00;;;;;;5053136;28;20482;-78
2021/07/15 01:30:13;;;;;;;1.13;0.40;;;18.00;99.90;;;;;;5067680;28;20469;-80
2021/07/15 01:32:50;;;;;;;0.40;0.30;;;18.00;99.90;;;;;;5071031;28;21354;-78
2021/07/15 01:35:22;;;;;;;0.40;0.40;;;17.90;99.90;;;;;;5053496;28;20442;-78
2021/07/15 01:37:54;;;;;;;0.83;0.37;;;18.00;99.90;;;;;;5054677;28;20471;-80
2021/07/15 01:40:26;;;;;;;0.50;0.50;;;18.00;1.00;;;;;;5047683;28;20829;-78
2021/07/15 01:42:59;;;;;;;0.50;0.30;;;18.00;99.90;;;;;;5053415;28;20451;-79
2021/07/15 01:45:30;;;;;;;0.40;0.40;;;18.00;1.00;;;;;;5055385;28;20454;-78
2021/07/15 01:47:58;;;;;;;1.53;0.30;;;18.00;1.00;;;;;;5056292;28;20852;-78
2021/07/15 01:50:27;;;;;;;0.30;0.30;;;18.00;99.90;;;;;;5054118;28;20480;-78
2021/07/15 01:53:00;;;;;;;0.40;0.40;;;18.00;99.90;;;;;;5047446;28;20458;-78
2021/07/15 01:55:29;;;;;;;0.30;0.30;;;18.00;89.70;;;;;;5058462;28;20458;-78
2021/07/15 01:57:58;;;;;;;8.33;0.50;;;17.70;99.90;;;;;;5050901;28;20466;-80
2021/07/15 02:00:28;;;;;;;0.30;0.30;;;17.70;1.00;;;;;;5055109;28;20457;-79
2021/07/15 02:02:57;;;;;;;0.30;0.30;;;17.60;1.00;;;;;;5066556;28;20557;-79
2021/07/15 02:05:26;;;;;;;0.47;0.30;;;17.60;1.00;;;;;;5050805;28;20877;-79
2021/07/15 02:07:57;;;;;;;0.40;0.40;;;17.60;99.90;;;;;;5062080;28;20476;-78
2021/07/15 02:10:26;;;;;;;1.53;0.40;;;17.50;99.90;;;;;;5061961;28;20446;-78
2021/07/15 02:12:56;;;;;;;2.20;0.30;;;17.50;14.20;;;;;;5046335;28;20459;-79
2021/07/15 02:15:26;;;;;;;0.30;0.30;;;17.40;1.00;;;;;;5059119;28;20526;-79
2021/07/15 02:17:57;;;;;;;0.43;0.30;;;17.40;99.90;;;;;;5058637;28;20481;-78
2021/07/15 02:20:26;;;;;;;0.30;0.30;;;17.30;99.90;;;;;;5054696;28;20460;-78
2021/07/15 02:22:56;;;;;;;0.30;0.30;;;17.30;1.00;;;;;;5050985;28;20442;-78
2021/07/15 02:25:25;;;;;;;0.43;0.43;;;17.40;99.90;;;;;;5050832;28;20461;-79
2021/07/15 02:27:55;;;;;;;0.30;0.30;;;17.40;99.90;;;;;;5043159;28;20998;-78
2021/07/15 02:30:23;;;;;;;0.77;0.30;;;17.40;1.00;;;;;;5066548;28;20441;-78
2021/07/15 02:32:57;;;;;;;0.60;0.30;;;17.30;1.00;;;;;;5050225;28;20532;-78
2021/07/15 02:35:32;;;;;;;0.80;0.30;;;17.40;1.00;;;;;;5047356;28;20485;-77
2021/07/15 02:38:03;;;;;;;1.27;0.33;;;17.50;99.90;;;;;;5061209;28;20481;-78
2021/07/15 02:40:31;;;;;;;0.30;0.30;;;17.50;35.90;;;;;;5051760;28;21271;-78
2021/07/15 02:42:59;;;;;;;0.30;0.30;;;17.60;99.90;;;;;;5041723;28;20454;-78
2021/07/15 02:45:27;;;;;;;0.60;0.30;;;17.70;99.90;;;;;;5052101;28;20435;-79
2021/07/15 02:47:57;;;;;;;0.30;0.30;;;17.60;57.40;;;;;;5052609;28;20471;-79
2021/07/15 02:50:26;;;;;;;0.30;0.30;;;17.70;1.00;;;;;;5054526;28;20482;-78
2021/07/15 02:52:57;;;;;;;0.30;0.30;;;17.80;99.90;;;;;;5063153;28;20528;-80
2021/07/15 02:55:27;;;;;;;0.53;0.30;;;17.90;12.10;;;;;;5054374;28;21001;-79
2021/07/15 02:58:02;;;;;;;0.40;0.40;;;17.80;99.90;;;;;;5050684;28;20469;-81
2021/07/15 03:00:37;;;;;;;0.90;0.30;;;17.70;1.00;;;;;;5061898;28;20479;-79
2021/07/15 03:03:15;;;;;;;0.70;0.30;;;17.80;1.00;;;;;;5054885;28;20472;-80
2021/07/15 03:05:52;;;;;;;0.40;0.40;;;17.80;1.00;;;;;;5052934;28;20454;-79
2021/07/15 03:08:26;;;;;;;0.40;0.40;;;17.80;99.90;;;;;;5050587;28;20547;-79
2021/07/15 03:10:55;;;;;;;2.00;0.40;;;17.80;99.90;;;;;;5062187;28;20512;-80
2021/07/15 03:13:25;;;;;;;0.40;0.40;;;17.80;99.90;;;;;;5066306;28;20457;-80
2021/07/15 03:15:54;;;;;;;0.40;0.40;;;17.80;99.90;;;;;;5059130;28;20541;-79
2021/07/15 03:18:28;;;;;;;0.40;0.40;;;17.80;99.90;;;;;;5051007;28;20483;-78
2021/07/15 03:20:58;;;;;;;0.40;0.30;;;17.90;99.90;;;;;;5051500;28;20458;-79
2021/07/15 03:23:27;;;;;;;1.77;0.40;;;17.90;99.90;;;;;;5051077;28;20473;-78
2021/07/15 03:25:57;;;;;;;0.30;0.30;;;17.90;32.80;;;;;;5051763;28;20450;-81
2021/07/15 03:28:28;;;;;;;0.40;0.40;;;17.70;99.90;;;;;;5054355;28;20495;-78
2021/07/15 03:31:02;;;;;;;0.40;0.40;;;17.60;1.00;;;;;;5057072;28;20453;-79
2021/07/15 03:33:34;;;;;;;0.50;0.40;;;17.60;1.00;;;;;;5071374;28;20607;-79
2021/07/15 03:36:05;;;;;;;0.87;0.50;;;17.80;99.90;;;;;;5065654;28;20528;-80
2021/07/15 03:38:33;;;;;;;0.50;0.33;;;17.80;99.90;;;;;;5050324;28;20484;-78
2021/07/15 03:41:02;;;;;;;1.70;1.23;;;17.90;99.90;;;;;;5062177;28;20533;-79
2021/07/15 03:43:31;;;;;;;0.50;0.40;;;18.00;1.00;;;;;;5056678;28;20459;-79
2021/07/15 03:46:00;;;;;;;1.33;0.40;;;18.00;99.90;;;;;;5049898;28;20864;-80
2021/07/15 03:48:30;;;;;;;0.40;0.40;;;17.90;99.90;;;;;;5053053;28;20477;-80
2021/07/15 03:51:02;;;;;;;0.83;0.33;;;17.70;1.00;;;;;;5055654;28;20469;-81
2021/07/15 03:53:31;;;;;;;1.27;0.40;;;17.70;99.90;;;;;;5060779;28;20592;-80
2021/07/15 03:56:01;;;;;;;0.33;0.33;;;17.80;99.90;;;;;;5051796;28;20486;-79
2021/07/15 03:58:31;;;;;;;0.30;0.30;;;17.80;99.90;;;;;;5050514;28;20461;-79
2021/07/15 04:01:02;;;;;;;0.40;0.40;;;17.80;99.90;;;;;;5046760;28;20449;-80
2021/07/15 04:03:33;;;;;;;0.30;0.30;;;17.70;99.90;;;;;;5052269;28;20961;-79
2021/07/15 04:06:04;;;;;;;0.40;0.40;;;17.80;1.00;;;;;;5050709;28;20993;-79
2021/07/15 04:08:37;;;;;;;0.40;0.40;;;17.70;31.40;;;;;;5058783;28;21148;-79
2021/07/15 04:11:07;;;;;;;0.30;0.30;;;17.70;99.90;;;;;;5063065;28;20455;-79
2021/07/15 04:13:36;;;;;;;0.40;0.40;;;17.70;99.90;;;;;;5058871;28;20520;-77
2021/07/15 04:16:19;;;;;;;0.30;0.30;;;17.70;99.90;;;;;;5053651;28;20944;-80
2021/07/15 04:18:50;;;;;;;1.50;0.40;;;17.70;99.90;;;;;;5055131;28;20503;-80
2021/07/15 04:21:20;;;;;;;0.30;0.30;;;17.80;1.00;;;;;;5055328;28;20219;-80
2021/07/15 04:23:49;;;;;;;0.40;0.40;;;17.70;99.90;;;;;;5054239;28;20454;-80
2021/07/15 04:26:19;;;;;;;0.30;0.30;;;17.70;99.90;;;;;;5046287;28;20999;-80
2021/07/15 04:28:48;;;;;;;0.33;0.33;;;17.60;1.00;;;;;;5054796;28;20476;-80
2021/07/15 04:31:32;;;;;;;0.63;0.40;;;17.50;99.90;;;;;;5055827;28;20492;-84
2021/07/15 04:34:01;;;;;;;0.67;0.30;;;17.60;1.00;;;;;;5058633;28;20445;-83
2021/07/15 04:36:33;;;;;;;0.40;0.30;;;17.60;1.00;;;;;;5061385;28;20462;-82
2021/07/15 04:39:02;;;;;;;1.00;0.40;;;17.40;31.70;;;;;;5041901;28;20536;-81
2021/07/15 04:41:31;;;;;;;0.40;0.40;;;17.50;99.90;;;;;;5047302;28;20202;-81
2021/07/15 04:44:00;;;;;;;1.03;0.30;;;17.50;99.90;;;;;;5054705;28;20472;-80
2021/07/15 04:46:28;;;;;;;0.40;0.30;;;17.50;1.00;;;;;;5055695;28;20442;-80
2021/07/15 04:48:57;;;;;;;2.30;0.40;;;17.50;1.00;;;;;;5060569;28;20486;-81
2021/07/15 04:51:26;;;;;;;0.50;0.50;;;17.60;99.90;;;;;;5055958;28;20516;-80
2021/07/15 04:53:57;;;;;;;0.30;0.30;;;17.40;99.90;;;;;;5049993;28;20541;-82
2021/07/15 04:56:27;;;;;;;0.30;0.30;;;17.50;1.00;;;;;;5052479;28;20489;-81
2021/07/15 04:58:56;;;;;;;0.50;0.50;;;17.60;1.00;;;;;;5056618;28;20485;-81
2021/07/15 05:01:24;;;;;;;0.50;0.50;;;17.40;1.00;;;;;;5054541;28;20555;-80
2021/07/15 05:03:52;;;;;;;1.43;0.40;;;17.40;99.90;;;;;;5049620;28;20821;-79
2021/07/15 05:06:22;;;;;;;0.50;0.40;;;17.40;1.00;;;;;;5058594;28;20466;-80
2021/07/15 05:08:50;;;;;;;0.40;0.40;;;17.40;1.00;;;;;;5052276;28;20479;-80
2021/07/15 05:11:20;;;;;;;0.60;0.40;;;17.50;1.00;;;;;;5058936;28;20467;-79
2021/07/15 05:13:49;;;;;;;0.40;0.40;;;17.50;51.10;;;;;;5062292;28;20462;-79
2021/07/15 05:16:17;;;;;;;0.40;0.40;;;17.60;1.00;;;;;;5058422;28;20457;-80
2021/07/15 05:18:46;;;;;;;0.43;0.37;;;17.60;1.00;;;;;;5058029;28;20824;-79
2021/07/15 05:21:14;;;;;;;0.53;0.40;;;17.50;99.90;;;;;;5058863;28;20830;-79
2021/07/15 05:23:42;;;;;;;0.37;0.37;;;17.50;99.90;;;;;;5055468;28;20516;-81
2021/07/15 05:26:11;;;;;;;0.60;0.40;;;17.50;99.90;;;;;;5054970;28;20500;-78
2021/07/15 05:28:40;;;;;;;0.47;0.40;;;17.60;1.00;;;;;;5066691;28;20478;-78
2021/07/15 05:31:09;;;;;;;0.30;0.30;;;17.70;99.90;;;;;;5068270;28;20962;-80
2021/07/15 05:33:37;;;;;;;1.30;0.40;;;17.80;1.00;;;;;;5069210;28;20519;-82
2021/07/15 05:36:05;;;;;;;1.20;0.40;;;18.00;1.00;;;;;;5049719;28;20486;-79
2021/07/15 05:38:34;;;;;;;0.93;0.40;;;18.00;84.20;;;;;;5032550;28;21176;-79
2021/07/15 05:41:02;;;;;;;0.40;0.40;;;18.00;1.00;;;;;;5032042;28;20459;-80
2021/07/15 05:43:30;;;;;;;0.53;0.40;;;18.00;99.90;;;;;;5038123;28;20469;-82
2021/07/15 05:46:00;;;;;;;1.60;0.40;;;18.00;99.90;;;;;;5048571;28;20540;-79
2021/07/15 05:48:28;;;;;;;1.27;0.37;;;18.00;99.90;;;;;;5052976;28;21007;-81
2021/07/15 05:50:56;;;;;;;0.33;0.33;;;18.00;1.00;;;;;;5043402;28;20462;-81
2021/07/15 05:53:24;;;;;;;0.40;0.40;;;18.00;99.90;;;;;;5047416;28;21276;-83
2021/07/15 05:55:52;;;;;;;0.50;0.47;;;18.00;1.00;;;;;;5046053;28;20625;-82
2021/07/15 05:58:20;;;;;;;0.50;0.50;;;18.00;99.90;;;;;;5040526;28;20845;-80
2021/07/15 06:00:49;;;;;;;1.90;0.40;;;18.00;99.90;;;;;;5048491;28;20460;-81
2021/07/15 06:03:20;;;;;;;0.30;0.30;;;18.10;99.90;;;;;;5045105;28;20548;-80
2021/07/15 06:05:50;;;;;;;1.67;0.50;;;18.20;99.90;;;;;;5040627;28;20463;-80
2021/07/15 06:08:18;;;;;;;0.40;0.40;;;18.20;1.00;;;;;;5063566;28;20467;-82
2021/07/15 06:10:46;;;;;;;0.37;0.37;;;18.30;99.90;;;;;;5045228;28;20840;-79
2021/07/15 06:13:15;;;;;;;0.40;0.40;;;18.30;99.90;;;;;;5052066;28;20495;-81
2021/07/15 06:15:43;;;;;;;0.40;0.40;;;18.20;99.90;;;;;;5034213;28;20460;-80
2021/07/15 06:18:11;;;;;;;2.00;0.30;;;18.20;99.90;;;;;;5037668;28;20479;-79
2021/07/15 06:20:41;;;;;;;0.50;0.50;;;18.20;99.90;;;;;;5036729;28;20506;-78
2021/07/15 06:23:09;;;;;;;0.87;0.80;;;18.20;99.90;;;;;;5045868;28;20458;-78
2021/07/15 06:25:37;;;;;;;0.63;0.60;;;18.30;1.00;;;;;;5038493;28;20962;-79
2021/07/15 06:28:05;;;;;;;1.10;0.50;;;18.30;1.00;;;;;;5047793;28;20540;-78
2021/07/15 06:30:34;;;;;;;2.13;0.53;;;18.40;1.00;;;;;;5042548;28;20486;-79
2021/07/15 06:33:02;;;;;;;0.63;0.40;;;18.50;1.00;;;;;;5041013;28;20459;-80
2021/07/15 06:35:31;;;;;;;0.50;0.50;;;18.50;1.00;;;;;;5050396;28;20505;-80
2021/07/15 06:38:01;;;;;;;1.30;0.47;;;18.40;99.90;;;;;;5040866;28;20519;-81
2021/07/15 06:40:29;;;;;;;0.67;0.63;;;18.40;99.90;;;;;;5044763;28;20534;-80
2021/07/15 06:42:57;;;;;;;0.60;0.50;;;18.40;16.70;;;;;;5045105;28;20879;-79
2021/07/15 06:45:25;;;;;;;2.87;0.50;;;18.50;99.90;;;;;;5046526;28;20442;-80
2021/07/15 06:47:54;;;;;;;0.77;0.50;;;18.40;99.90;;;;;;5042124;28;21279;-79
2021/07/15 06:50:22;;;;;;;1.47;0.50;;;18.50;1.00;;;;;;5053737;28;20472;-79
2021/07/15 06:52:50;;;;;;;0.50;0.50;;;18.60;99.90;;;;;;5045760;28;20901;-80
2021/07/15 06:55:20;;;;;;;1.10;0.60;;;18.60;1.00;;;;;;5041819;28;20447;-80
2021/07/15 06:57:48;;;;;;;1.07;0.70;;;18.60;1.00;;;;;;5048847;28;20470;-80
2021/07/15 07:00:18;;;;;;;0.60;0.60;;;18.60;1.00;;;;;;5041166;28;20451;-82
2021/07/15 07:02:47;;;;;;;1.37;0.60;;;18.60;1.00;;;;;;5044288;28;20450;-82
2021/07/15 07:05:17;;;;;;;2.10;0.60;;;18.60;99.90;;;;;;5048160;28;20451;-80
2021/07/15 07:07:46;;;;;;;0.50;0.50;;;18.60;91.60;;;;;;5037171;28;20467;-80
2021/07/15 07:10:16;;;;;;;1.03;0.50;;;18.70;17.00;;;;;;5046838;28;20474;-80
2021/07/15 07:12:46;;;;;;;0.50;0.40;;;18.80;99.90;;;;;;5046939;28;20461;-81
2021/07/15 07:15:16;;;;;;;0.90;0.50;;;18.80;1.00;;;;;;5043859;28;20452;-81
2021/07/15 07:17:44;;;;;;;5.60;0.70;;;18.90;1.00;;;;;;5044129;28;21035;-81
2021/07/15 07:20:15;;;;;;;2.07;1.00;;;18.80;1.00;;;;;;5033564;28;20447;-79
2021/07/15 07:22:43;;;;;;;1.10;0.60;;;18.90;99.90;;;;;;5056968;28;20504;-80
2021/07/15 07:25:13;;;;;;;0.67;0.67;;;18.90;99.90;;;;;;5040342;28;20990;-81
2021/07/15 07:27:41;;;;;;;0.60;0.57;;;19.00;1.00;;;;;;5040522;28;20468;-81
2021/07/15 07:30:14;;;;;;;0.67;0.50;;;19.10;88.30;;;;;;5043084;28;20478;-80
2021/07/15 07:32:42;;;;;;;1.47;0.60;;;19.10;99.90;;;;;;5041963;28;20487;-81
2021/07/15 07:35:12;;;;;;;0.70;0.60;;;19.20;99.90;;;;;;5044720;28;20524;-81
2021/07/15 07:37:40;;;;;;;2.50;0.70;;;19.20;99.90;;;;;;5044378;28;20849;-80
2021/07/15 07:40:10;;;;;;;1.80;0.60;;;19.20;25.60;;;;;;5043133;28;20495;-79
2021/07/15 07:42:42;;;;;;;0.47;0.47;;;19.30;99.90;;;;;;5036407;28;20460;-79
2021/07/15 07:45:12;;;;;;;0.67;0.67;;;19.30;1.00;;;;;;5041760;28;20970;-81
2021/07/15 07:47:41;;;;;;;2.60;0.60;;;19.40;99.90;;;;;;5040473;28;20563;-80
2021/07/15 07:50:12;;;;;;;1.30;0.50;;;19.40;42.30;;;;;;5064731;28;20550;-79
2021/07/15 07:52:40;;;;;;;0.43;0.40;;;19.50;99.90;;;;;;5044459;28;20538;-80
2021/07/15 07:55:10;;;;;;;1.63;0.50;;;19.50;99.90;;;;;;5036038;28;20452;-80
2021/07/15 07:57:38;;;;;;;0.40;0.40;;;19.40;1.00;;;;;;5046331;28;20475;-82
2021/07/15 08:00:09;;;;;;;1.23;0.40;;;19.40;1.00;;;;;;5044156;28;20455;-81
2021/07/15 08:02:40;;;;;;;0.50;0.50;;;19.40;99.90;;;;;;5048812;28;20460;-80
2021/07/15 08:05:10;;;;;;;1.83;0.50;;;19.50;99.90;;;;;;5037911;28;20551;-80
2021/07/15 08:07:39;;;;;;;1.43;0.50;;;19.50;99.90;;;;;;5046577;28;20571;-79
2021/07/15 08:10:08;;;;;;;0.60;0.50;;;19.50;99.90;;;;;;5042674;28;20562;-79
2021/07/15 08:12:37;;;;;;;0.40;0.40;;;19.50;99.90;;;;;;5043566;28;20455;-81
2021/07/15 08:15:07;;;;;;;1.60;0.60;;;19.50;21.70;;;;;;5053997;28;20510;-79
2021/07/15 08:17:36;;;;;;;0.43;0.43;;;19.40;1.00;;;;;;5040056;28;20482;-78
2021/07/15 08:20:08;;;;;;;0.57;0.50;;;19.40;1.00;;;;;;5033236;28;20448;-80
2021/07/15 08:22:36;;;;;;;0.40;0.40;;;19.40;1.00;;;;;;5058893;28;20456;-78
2021/07/15 08:25:06;;;;;;;0.50;0.40;;;19.40;99.90;;;;;;5046163;28;20878;-80
2021/07/15 08:27:34;;;;;;;0.40;0.30;;;19.40;99.90;;;;;;5038017;28;21037;-80
2021/07/15 08:30:04;;;;;;;0.80;0.50;;;19.40;1.00;;;;;;5036045;28;20526;-79
2021/07/15 08:32:32;;;;;;;0.40;0.40;;;19.50;16.20;;;;;;5043096;28;20444;-79
2021/07/15 08:35:22;;;;;;;1.40;0.40;;;19.50;1.00;;;;;;5052867;28;20451;-79
2021/07/15 08:37:50;;;;;;;0.50;0.40;;;19.50;99.90;;;;;;5050481;28;20470;-78
2021/07/15 08:40:18;;;;;;;0.80;0.50;;;19.60;1.00;;;;;;5052489;28;20443;-79
2021/07/15 08:42:47;;;;;;;0.50;0.43;;;19.50;99.90;;;;;;5046177;28;20539;-79
2021/07/15 08:45:15;;;;;;;0.40;0.40;;;19.50;99.90;;;;;;5043488;28;20527;-78
2021/07/15 08:47:44;;;;;;;0.60;0.40;;;19.60;1.00;;;;;;5044879;28;21181;-79
2021/07/15 08:50:16;;;;;;;0.50;0.50;;;19.60;1.00;;;;;;5044602;28;20467;-79
2021/07/15 08:52:46;;;;;;;0.50;0.50;;;19.70;1.00;;;;;;5060260;28;20542;-80
2021/07/15 08:56:36;;;;;;;0.40;0.40;;;19.60;1.00;;;;;;5044101;28;20449;-79
2021/07/15 08:58:11;;;;;;;0.43;0.40;;;19.60;99.90;;;;;;5033973;28;20921;-79
2021/07/15 09:00:40;;;;;;;0.40;0.40;;;19.70;99.90;;;;;;5056307;28;20444;-78
2021/07/15 09:03:08;;;;;;;0.40;0.40;;;19.70;99.90;;;;;;5049313;28;20516;-78
2021/07/15 09:05:37;;;;;;;0.40;0.40;;;19.80;99.90;;;;;;5038312;28;20452;-80
2021/07/15 09:08:07;;;;;;;0.57;0.50;;;19.80;26.80;;;;;;5041342;28;20910;-79
2021/07/15 09:10:39;;;;;;;0.50;0.50;;;19.80;99.90;;;;;;5043329;28;20480;-81
2021/07/15 09:13:08;;;;;;;0.40;0.40;;;19.80;99.90;;;;;;5043912;28;20539;-79
2021/07/15 09:15:36;;;;;;;0.40;0.40;;;19.80;99.90;;;;;;5048227;28;20479;-80
2021/07/15 09:18:12;;;;;;;0.77;0.40;;;19.80;1.00;;;;;;5047124;28;20562;-79
2021/07/15 09:20:41;;;;;;;0.57;0.40;;;19.80;99.90;;;;;;5039554;28;20470;-80
2021/07/15 09:23:13;;;;;;;0.50;0.47;;;19.80;99.90;;;;;;5039071;28;20548;-80
2021/07/15 09:25:58;;;;;;;0.63;0.40;;;19.80;1.00;;;;;;5048023;28;20452;-79
2021/07/15 09:28:29;;;;;;;0.40;0.40;;;19.80;1.00;;;;;;5048902;28;20478;-80
2021/07/15 09:31:12;;;;;;;0.70;0.40;;;19.80;1.00;;;;;;5042162;28;20573;-79
2021/07/15 09:33:42;;;;;;;1.27;0.40;;;19.80;99.90;;;;;;5045516;28;21218;-80
2021/07/15 09:36:16;;;;;;;0.63;0.50;;;19.80;1.00;;;;;;5048208;28;21223;-80
2021/07/15 09:38:46;;;;;;;0.40;0.40;;;19.80;1.00;;;;;;5040842;28;21017;-79
2021/07/15 09:41:20;;;;;;;0.40;0.40;;;19.70;99.90;;;;;;5050900;28;20460;-80
2021/07/15 09:43:49;;;;;;;0.50;0.50;;;19.70;99.90;;;;;;5046785;28;20979;-79
2021/07/15 09:46:20;;;;;;;0.60;0.50;;;19.70;1.00;;;;;;5042110;28;20465;-80
2021/07/15 09:48:51;;;;;;;0.40;0.40;;;19.80;30.30;;;;;;5041164;28;20459;-80
2021/07/15 09:51:20;;;;;;;0.37;0.37;;;19.80;1.00;;;;;;5037636;28;20479;-81
2021/07/15 09:53:49;;;;;;;0.50;0.50;;;19.70;40.10;;;;;;5037042;28;20871;-79
2021/07/15 09:56:19;;;;;;;0.40;0.40;;;19.80;1.00;;;;;;5043736;28;20451;-79
2021/07/15 09:58:48;;;;;;;2.40;0.40;;;19.80;1.00;;;;;;5049186;28;20467;-81
2021/07/15 10:01:20;;;;;;;0.73;0.40;;;19.80;1.00;;;;;;5037333;28;20456;-81
2021/07/15 10:03:50;;;;;;;0.40;0.40;;;19.80;99.90;;;;;;5040391;28;20448;-80
2021/07/15 10:06:19;;;;;;;0.53;0.53;;;19.80;99.90;;;;;;5048712;28;20509;-80
2021/07/15 10:08:53;;;;;;;0.50;0.50;;;19.90;99.90;;;;;;5049982;28;20842;-80
2021/07/15 10:11:25;;;;;;;0.40;0.40;;;19.90;8.80;;;;;;5043194;28;20475;-80
2021/07/15 10:14:01;;;;;;;0.40;0.40;;;19.90;99.90;;;;;;5043395;28;20940;-80
2021/07/15 10:16:30;;;;;;;0.67;0.43;;;20.00;99.90;;;;;;5041067;28;20459;-80
2021/07/15 10:19:00;;;;;;;1.00;0.40;;;20.00;1.00;;;;;;5041101;28;20472;-81
2021/07/15 10:21:31;;;;;;;0.50;0.50;;;20.00;98.50;;;;;;5044607;28;20485;-81
2021/07/15 10:24:14;;;;;;;0.43;0.43;;;20.00;68.00;;;;;;5039161;28;20446;-80
2021/07/15 10:26:44;;;;;;;0.50;0.50;;;20.10;1.00;;;;;;5034421;28;20470;-80
2021/07/15 10:29:14;;;;;;;0.90;0.40;;;20.10;1.00;;;;;;5044957;28;20454;-80
2021/07/15 10:31:43;;;;;;;1.93;0.50;;;20.10;1.00;;;;;;5043647;28;20478;-80
2021/07/15 10:34:12;;;;;;;0.50;0.50;;;20.10;1.00;;;;;;5045015;28;20510;-80
2021/07/15 10:36:42;;;;;;;0.60;0.50;;;20.10;99.90;;;;;;5060547;28;20460;-80
2021/07/15 10:39:14;;;;;;;0.40;0.40;;;20.20;1.00;;;;;;5035034;28;20498;-80
2021/07/15 10:41:44;;;;;;;1.17;0.43;;;20.20;99.90;;;;;;5047515;28;20509;-80
2021/07/15 10:44:13;;;;;;;0.40;0.40;;;20.20;99.90;;;;;;5041649;28;20462;-81
2021/07/15 10:46:42;;;;;;;0.50;0.50;;;20.20;1.00;;;;;;5041207;28;20451;-80
2021/07/15 10:49:23;;;;;;;0.40;0.40;;;20.30;99.90;;;;;;5039590;28;20457;-83
2021/07/15 10:51:52;;;;;;;0.40;0.40;;;20.30;99.90;;;;;;5044950;28;20475;-81
2021/07/15 10:54:23;;;;;;;0.67;0.40;;;20.40;99.90;;;;;;5039375;28;20511;-80
2021/07/15 10:56:52;;;;;;;0.43;0.43;;;20.50;99.90;;;;;;5041624;28;20471;-81
2021/07/15 10:59:23;;;;;;;0.50;0.50;;;20.50;1.00;;;;;;5046278;28;21015;-82
2021/07/15 11:01:51;;;;;;;0.50;0.40;;;20.60;46.10;;;;;;5040510;28;20467;-79
2021/07/15 11:04:33;;;;;;;0.97;0.40;;;20.60;99.90;;;;;;5058572;28;20480;-81
2021/07/15 11:07:16;;;;;;;0.50;0.50;;;20.60;1.00;;;;;;5042440;28;20479;-81
2021/07/15 11:09:46;;;;;;;0.70;0.60;;;20.60;99.90;;;;;;5046747;28;20471;-82
2021/07/15 11:12:35;;;;;;;0.90;0.60;;;20.70;99.90;;;;;;5041054;28;20471;-80
2021/07/15 11:15:11;;;;;;;0.73;0.60;;;20.70;1.00;;;;;;5048990;28;20482;-81
2021/07/15 11:17:46;;;;;;;0.50;0.50;;;20.70;29.40;;;;;;5047741;28;20470;-83
2021/07/15 11:20:18;;;;;;;1.00;0.60;;;20.70;1.00;;;;;;5042932;28;20491;-82
2021/07/15 11:22:55;;;;;;;0.50;0.50;;;20.70;1.00;;;;;;5047283;28;21019;-80
2021/07/15 11:25:39;;;;;;;1.10;0.60;;;20.70;99.90;;;;;;5045760;28;20496;-81
2021/07/15 11:28:19;;;;;;;0.80;0.57;;;20.70;1.00;;;;;;5036498;28;20479;-81
2021/07/15 11:30:50;;;;;;;1.00;0.53;;;20.90;99.90;;;;;;5040293;28;20459;-82
2021/07/15 11:33:38;;;;;;;0.60;0.60;;;20.90;99.90;;;;;;5045983;28;20475;-81
2021/07/15 11:36:11;;;;;;;0.60;0.60;;;21.00;1.00;;;;;;5049279;28;20448;-82
2021/07/15 11:38:43;;;;;;;1.57;1.00;;;20.90;99.90;;;;;;5052312;28;20481;-80
2021/07/15 11:41:14;;;;;;;0.60;0.60;;;21.00;99.90;;;;;;5046667;28;20457;-80
2021/07/15 11:43:57;;;;;;;0.60;0.60;;;21.00;1.00;;;;;;5047830;28;20487;-80
2021/07/15 11:46:33;;;;;;;0.70;0.70;;;21.00;99.90;;;;;;5051785;28;20474;-81
2021/07/15 11:49:06;;;;;;;1.07;0.60;;;21.00;99.90;;;;;;5046090;28;20483;-80
2021/07/15 11:51:43;;;;;;;0.73;0.70;;;21.00;99.90;;;;;;5034193;28;20843;-81
2021/07/15 11:54:34;;;;;;;0.50;0.50;;;21.00;99.90;;;;;;5044739;28;20459;-80
2021/07/15 11:57:24;;;;;;;0.70;0.70;;;21.00;1.00;;;;;;5038709;28;20501;-81
2021/07/15 11:59:52;;;;;;;0.73;0.73;;;21.10;99.90;;;;;;5040141;28;20462;-82
2021/07/15 12:02:26;;;;;;;6.40;1.20;;;21.10;1.00;;;;;;5042320;28;20447;-82
2021/07/15 12:05:28;;;;;;;0.70;0.70;;;21.20;1.00;;;;;;5040230;28;20531;-81
2021/07/15 12:08:12;;;;;;;0.60;0.60;;;21.20;1.00;;;;;;5043703;28;20478;-84
2021/07/15 12:10:42;;;;;;;0.60;0.60;;;21.20;99.90;;;;;;5041649;28;20819;-80
2021/07/15 12:13:14;;;;;;;0.70;0.70;;;21.20;1.00;;;;;;5042644;28;20472;-80
2021/07/15 12:15:44;;;;;;;0.70;0.70;;;21.10;25.70;;;;;;5044250;28;20524;-81
2021/07/15 12:18:14;;;;;;;1.00;0.80;;;21.10;30.00;;;;;;5042580;28;20534;-80
2021/07/15 12:20:45;;;;;;;0.73;0.60;;;21.10;99.90;;;;;;5038614;28;21027;-81
2021/07/15 12:23:18;;;;;;;1.07;0.50;;;21.10;99.90;;;;;;5050970;28;20442;-81
2021/07/15 12:25:48;;;;;;;0.50;0.50;;;21.10;99.90;;;;;;5048158;28;20461;-79
2021/07/15 12:28:21;;;;;;;0.80;0.60;;;21.00;1.00;;;;;;5045750;28;20468;-78
2021/07/15 12:30:51;;;;;;;13.23;5.20;;;21.00;99.90;;;;;;5036042;28;20905;-79
2021/07/15 12:33:21;;;;;;;2.40;1.10;;;21.00;99.90;;;;;;5048163;28;20889;-79
2021/07/15 12:35:52;;;;;;;1.53;0.70;;;21.00;99.90;;;;;;5040669;28;20611;-80
2021/07/15 12:38:31;;;;;;;0.60;0.60;;;20.90;99.90;;;;;;5048383;28;20544;-80
2021/07/15 12:41:09;;;;;;;0.60;0.60;;;20.90;99.90;;;;;;5046499;28;20463;-81
2021/07/15 12:43:46;;;;;;;0.70;0.70;;;20.90;99.90;;;;;;5042693;28;20441;-80
2021/07/15 12:46:17;;;;;;;0.60;0.60;;;20.90;99.90;;;;;;5039473;28;20486;-80
2021/07/15 12:48:47;;;;;;;0.70;0.70;;;20.90;99.90;;;;;;5038117;28;20493;-80
2021/07/15 12:51:16;;;;;;;0.93;0.70;;;21.00;99.90;;;;;;5030633;28;20466;-81
2021/07/15 12:53:46;;;;;;;1.10;0.70;;;21.00;21.70;;;;;;5034556;28;20529;-80
2021/07/15 12:56:19;;;;;;;0.83;0.83;;;21.00;44.60;;;;;;5033602;28;20464;-80
2021/07/15 12:59:03;;;;;;;0.80;0.80;;;21.10;44.80;;;;;;5045109;28;20471;-80
2021/07/15 13:01:39;;;;;;;0.80;0.80;;;21.10;1.00;;;;;;5046227;28;20547;-79
2021/07/15 13:04:10;;;;;;;0.80;0.80;;;21.20;1.00;;;;;;5037291;28;20479;-80
2021/07/15 13:06:41;;;;;;;0.90;0.90;;;21.30;1.00;;;;;;5033221;28;20542;-80
2021/07/15 13:09:27;;;;;;;0.80;0.80;;;21.40;1.00;;;;;;5046213;28;20518;-80
2021/07/15 13:14:47;;;;;;;0.90;0.90;;;21.50;1.00;;;;;;5035224;28;20455;-80